sensor_id;sensor_type;location;lat;lon;timestamp;P1;durP1;ratioP1;P2;durP2;ratioP2
49029;SDS011;43337;52.070;4.508;2022-12-16T00:01:25;8.60;;;2.35;;
49029;SDS011;43337;52.070;4.508;2022-12-16T00:03:51;4.68;;;2.20;;
49029;SDS011;43337;52.070;4.508;2022-12-16T00:06:18;8.50;;;1.85;;
49029;SDS011;43337;52.070;4.508;2022-12-16T00:08:45;5.30;;;1.90;;
49029;SDS011;43337;52.070;4.508;2022-12-16T00:11:10;3.95;;;1.70;;
49029;SDS011;43337;52.070;4.508;2022-12-16T00:13:36;6.90;;;1.60;;
49029;SDS011;43337;52.070;4.508;2022-12-16T00:18:34;4.30;;;1.77;;
49029;SDS011;43337;52.070;4.508;2022-12-16T00:21:00;4.78;;;2.03;;
49029;SDS011;43337;52.070;4.508;2022-12-16T00:23:26;4.05;;;1.60;;
49029;SDS011;43337;52.070;4.508;2022-12-16T00:25:52;5.25;;;1.55;;
49029;SDS011;43337;52.070;4.508;2022-12-16T00:28:17;5.35;;;1.60;;
49029;SDS011;43337;52.070;4.508;2022-12-16T00:30:46;4.90;;;1.40;;
49029;SDS011;43337;52.070;4.508;2022-12-16T00:33:13;4.38;;;1.58;;
49029;SDS011;43337;52.070;4.508;2022-12-16T00:35:39;7.32;;;2.47;;
49029;SDS011;43337;52.070;4.508;2022-12-16T00:38:04;7.85;;;1.60;;
49029;SDS011;43337;52.070;4.508;2022-12-16T00:40:29;11.63;;;1.83;;
49029;SDS011;43337;52.070;4.508;2022-12-16T00:42:55;6.20;;;1.40;;
49029;SDS011;43337;52.070;4.508;2022-12-16T00:45:20;9.95;;;1.70;;
49029;SDS011;43337;52.070;4.508;2022-12-16T00:47:47;5.07;;;1.65;;
49029;SDS011;43337;52.070;4.508;2022-12-16T00:50:13;6.25;;;1.70;;
49029;SDS011;43337;52.070;4.508;2022-12-16T00:52:39;5.57;;;1.58;;
49029;SDS011;43337;52.070;4.508;2022-12-16T00:55:05;7.75;;;1.80;;
49029;SDS011;43337;52.070;4.508;2022-12-16T00:57:31;5.20;;;1.42;;
49029;SDS011;43337;52.070;4.508;2022-12-16T00:59:57;6.45;;;1.50;;
49029;SDS011;43337;52.070;4.508;2022-12-16T01:02:22;8.15;;;1.48;;
49029;SDS011;43337;52.070;4.508;2022-12-16T01:04:48;3.88;;;1.50;;
49029;SDS011;43337;52.070;4.508;2022-12-16T01:07:13;5.15;;;1.45;;
49029;SDS011;43337;52.070;4.508;2022-12-16T01:09:39;7.30;;;2.05;;
49029;SDS011;43337;52.070;4.508;2022-12-16T01:12:04;5.53;;;1.70;;
49029;SDS011;43337;52.070;4.508;2022-12-16T01:14:30;7.18;;;1.67;;
49029;SDS011;43337;52.070;4.508;2022-12-16T01:16:55;5.93;;;1.92;;
49029;SDS011;43337;52.070;4.508;2022-12-16T01:19:21;10.68;;;1.73;;
49029;SDS011;43337;52.070;4.508;2022-12-16T01:21:46;7.38;;;2.03;;
49029;SDS011;43337;52.070;4.508;2022-12-16T01:24:12;3.85;;;1.67;;
49029;SDS011;43337;52.070;4.508;2022-12-16T01:26:37;6.15;;;1.80;;
49029;SDS011;43337;52.070;4.508;2022-12-16T01:29:03;8.43;;;2.00;;
49029;SDS011;43337;52.070;4.508;2022-12-16T01:31:29;5.45;;;1.75;;
49029;SDS011;43337;52.070;4.508;2022-12-16T01:33:54;10.20;;;1.65;;
49029;SDS011;43337;52.070;4.508;2022-12-16T01:36:19;6.18;;;1.65;;
49029;SDS011;43337;52.070;4.508;2022-12-16T01:38:45;4.95;;;1.42;;
49029;SDS011;43337;52.070;4.508;2022-12-16T01:41:11;7.20;;;2.47;;
49029;SDS011;43337;52.070;4.508;2022-12-16T01:43:38;4.93;;;1.48;;
49029;SDS011;43337;52.070;4.508;2022-12-16T01:46:08;12.27;;;2.38;;
49029;SDS011;43337;52.070;4.508;2022-12-16T01:48:44;11.30;;;2.13;;
49029;SDS011;43337;52.070;4.508;2022-12-16T01:51:17;6.03;;;1.50;;
49029;SDS011;43337;52.070;4.508;2022-12-16T01:53:59;7.47;;;2.00;;
49029;SDS011;43337;52.070;4.508;2022-12-16T01:56:29;8.85;;;1.30;;
49029;SDS011;43337;52.070;4.508;2022-12-16T01:58:56;7.05;;;1.60;;
49029;SDS011;43337;52.070;4.508;2022-12-16T02:01:23;3.50;;;1.42;;
49029;SDS011;43337;52.070;4.508;2022-12-16T02:03:49;7.05;;;1.20;;
49029;SDS011;43337;52.070;4.508;2022-12-16T02:06:18;5.47;;;1.00;;
49029;SDS011;43337;52.070;4.508;2022-12-16T02:08:43;8.07;;;1.35;;
49029;SDS011;43337;52.070;4.508;2022-12-16T02:16:45;4.15;;;1.17;;
49029;SDS011;43337;52.070;4.508;2022-12-16T02:21:57;4.25;;;1.00;;
49029;SDS011;43337;52.070;4.508;2022-12-16T02:25:07;5.60;;;1.38;;
49029;SDS011;43337;52.070;4.508;2022-12-16T02:30:37;6.15;;;1.20;;
49029;SDS011;43337;52.070;4.508;2022-12-16T02:33:15;7.53;;;1.08;;
49029;SDS011;43337;52.070;4.508;2022-12-16T02:35:59;8.20;;;0.90;;
49029;SDS011;43337;52.070;4.508;2022-12-16T02:38:40;3.95;;;1.35;;
49029;SDS011;43337;52.070;4.508;2022-12-16T02:44:14;6.15;;;1.45;;
49029;SDS011;43337;52.070;4.508;2022-12-16T02:46:42;4.40;;;0.95;;
49029;SDS011;43337;52.070;4.508;2022-12-16T02:51:42;6.85;;;0.90;;
49029;SDS011;43337;52.070;4.508;2022-12-16T02:54:07;4.38;;;0.90;;
49029;SDS011;43337;52.070;4.508;2022-12-16T03:02:01;8.02;;;1.30;;
49029;SDS011;43337;52.070;4.508;2022-12-16T03:04:44;10.88;;;1.50;;
49029;SDS011;43337;52.070;4.508;2022-12-16T03:07:14;8.35;;;1.05;;
49029;SDS011;43337;52.070;4.508;2022-12-16T03:09:42;7.43;;;0.88;;
49029;SDS011;43337;52.070;4.508;2022-12-16T03:12:11;7.15;;;1.85;;
49029;SDS011;43337;52.070;4.508;2022-12-16T03:14:40;8.15;;;1.10;;
49029;SDS011;43337;52.070;4.508;2022-12-16T03:17:09;3.15;;;1.08;;
49029;SDS011;43337;52.070;4.508;2022-12-16T03:19:35;4.55;;;1.23;;
49029;SDS011;43337;52.070;4.508;2022-12-16T03:22:08;6.45;;;1.13;;
49029;SDS011;43337;52.070;4.508;2022-12-16T03:24:37;4.00;;;0.90;;
49029;SDS011;43337;52.070;4.508;2022-12-16T03:27:10;3.78;;;1.30;;
49029;SDS011;43337;52.070;4.508;2022-12-16T03:29:43;8.15;;;1.10;;
49029;SDS011;43337;52.070;4.508;2022-12-16T03:35:01;8.43;;;1.00;;
49029;SDS011;43337;52.070;4.508;2022-12-16T03:40:02;7.18;;;1.15;;
49029;SDS011;43337;52.070;4.508;2022-12-16T03:42:31;7.00;;;1.10;;
49029;SDS011;43337;52.070;4.508;2022-12-16T03:44:58;8.13;;;1.20;;
49029;SDS011;43337;52.070;4.508;2022-12-16T03:47:25;3.92;;;0.77;;
49029;SDS011;43337;52.070;4.508;2022-12-16T03:49:52;7.53;;;1.30;;
49029;SDS011;43337;52.070;4.508;2022-12-16T03:52:18;9.55;;;1.80;;
49029;SDS011;43337;52.070;4.508;2022-12-16T03:54:43;6.32;;;1.10;;
49029;SDS011;43337;52.070;4.508;2022-12-16T03:57:08;4.88;;;1.10;;
49029;SDS011;43337;52.070;4.508;2022-12-16T03:59:34;5.25;;;1.08;;
49029;SDS011;43337;52.070;4.508;2022-12-16T04:01:59;11.43;;;1.20;;
49029;SDS011;43337;52.070;4.508;2022-12-16T04:04:25;4.40;;;1.27;;
49029;SDS011;43337;52.070;4.508;2022-12-16T04:06:50;6.05;;;1.25;;
49029;SDS011;43337;52.070;4.508;2022-12-16T04:09:36;6.40;;;1.20;;
49029;SDS011;43337;52.070;4.508;2022-12-16T04:12:01;8.55;;;1.80;;
49029;SDS011;43337;52.070;4.508;2022-12-16T04:14:47;6.75;;;1.95;;
49029;SDS011;43337;52.070;4.508;2022-12-16T04:17:31;7.05;;;2.60;;
49029;SDS011;43337;52.070;4.508;2022-12-16T04:20:15;6.13;;;1.30;;
49029;SDS011;43337;52.070;4.508;2022-12-16T04:23:00;5.32;;;1.15;;
49029;SDS011;43337;52.070;4.508;2022-12-16T04:25:45;17.00;;;2.30;;
49029;SDS011;43337;52.070;4.508;2022-12-16T04:28:10;6.63;;;1.42;;
49029;SDS011;43337;52.070;4.508;2022-12-16T04:30:36;5.55;;;1.40;;
49029;SDS011;43337;52.070;4.508;2022-12-16T04:33:02;4.32;;;1.30;;
49029;SDS011;43337;52.070;4.508;2022-12-16T04:35:49;4.15;;;1.20;;
49029;SDS011;43337;52.070;4.508;2022-12-16T04:38:33;8.88;;;1.67;;
49029;SDS011;43337;52.070;4.508;2022-12-16T04:41:17;6.72;;;1.35;;
49029;SDS011;43337;52.070;4.508;2022-12-16T04:44:00;6.95;;;1.23;;
49029;SDS011;43337;52.070;4.508;2022-12-16T04:46:44;5.70;;;1.30;;
49029;SDS011;43337;52.070;4.508;2022-12-16T04:49:28;5.40;;;1.58;;
49029;SDS011;43337;52.070;4.508;2022-12-16T04:52:12;5.22;;;2.05;;
49029;SDS011;43337;52.070;4.508;2022-12-16T04:54:57;6.10;;;1.47;;
49029;SDS011;43337;52.070;4.508;2022-12-16T04:57:42;4.82;;;1.27;;
49029;SDS011;43337;52.070;4.508;2022-12-16T05:00:29;8.93;;;1.60;;
49029;SDS011;43337;52.070;4.508;2022-12-16T05:03:13;5.20;;;1.45;;
49029;SDS011;43337;52.070;4.508;2022-12-16T05:05:57;4.45;;;1.50;;
49029;SDS011;43337;52.070;4.508;2022-12-16T05:08:42;4.73;;;1.30;;
49029;SDS011;43337;52.070;4.508;2022-12-16T05:11:26;6.90;;;2.30;;
49029;SDS011;43337;52.070;4.508;2022-12-16T05:14:09;8.40;;;2.15;;
49029;SDS011;43337;52.070;4.508;2022-12-16T05:16:54;8.18;;;2.10;;
49029;SDS011;43337;52.070;4.508;2022-12-16T05:19:37;16.88;;;3.05;;
49029;SDS011;43337;52.070;4.508;2022-12-16T05:22:21;8.23;;;2.75;;
49029;SDS011;43337;52.070;4.508;2022-12-16T05:25:05;10.38;;;2.55;;
49029;SDS011;43337;52.070;4.508;2022-12-16T05:27:51;8.90;;;2.22;;
49029;SDS011;43337;52.070;4.508;2022-12-16T05:30:36;7.70;;;2.00;;
49029;SDS011;43337;52.070;4.508;2022-12-16T05:33:20;6.28;;;1.88;;
49029;SDS011;43337;52.070;4.508;2022-12-16T05:36:04;11.63;;;2.50;;
49029;SDS011;43337;52.070;4.508;2022-12-16T05:38:49;12.05;;;2.08;;
49029;SDS011;43337;52.070;4.508;2022-12-16T05:41:34;7.72;;;2.00;;
49029;SDS011;43337;52.070;4.508;2022-12-16T05:44:18;13.45;;;3.13;;
49029;SDS011;43337;52.070;4.508;2022-12-16T05:47:01;23.45;;;8.15;;
49029;SDS011;43337;52.070;4.508;2022-12-16T05:49:45;11.80;;;4.82;;
49029;SDS011;43337;52.070;4.508;2022-12-16T05:52:29;13.52;;;3.00;;
49029;SDS011;43337;52.070;4.508;2022-12-16T05:55:13;8.98;;;2.17;;
49029;SDS011;43337;52.070;4.508;2022-12-16T05:57:57;7.78;;;2.05;;
49029;SDS011;43337;52.070;4.508;2022-12-16T06:00:41;6.57;;;2.00;;
49029;SDS011;43337;52.070;4.508;2022-12-16T06:03:25;6.30;;;2.03;;
49029;SDS011;43337;52.070;4.508;2022-12-16T06:06:09;11.30;;;1.80;;
49029;SDS011;43337;52.070;4.508;2022-12-16T06:08:53;5.28;;;2.00;;
49029;SDS011;43337;52.070;4.508;2022-12-16T06:11:37;4.53;;;2.00;;
49029;SDS011;43337;52.070;4.508;2022-12-16T06:14:21;11.07;;;2.00;;
49029;SDS011;43337;52.070;4.508;2022-12-16T06:17:04;14.23;;;4.65;;
49029;SDS011;43337;52.070;4.508;2022-12-16T06:19:48;94.47;;;27.52;;
49029;SDS011;43337;52.070;4.508;2022-12-16T06:22:32;64.68;;;19.25;;
49029;SDS011;43337;52.070;4.508;2022-12-16T06:25:16;160.02;;;42.50;;
49029;SDS011;43337;52.070;4.508;2022-12-16T06:28:00;129.95;;;36.35;;
49029;SDS011;43337;52.070;4.508;2022-12-16T06:30:52;92.00;;;29.25;;
49029;SDS011;43337;52.070;4.508;2022-12-16T06:33:35;78.35;;;25.60;;
49029;SDS011;43337;52.070;4.508;2022-12-16T06:36:39;40.63;;;14.63;;
49029;SDS011;43337;52.070;4.508;2022-12-16T06:39:23;40.28;;;15.60;;
49029;SDS011;43337;52.070;4.508;2022-12-16T06:42:07;32.53;;;12.00;;
49029;SDS011;43337;52.070;4.508;2022-12-16T06:44:51;27.57;;;11.03;;
49029;SDS011;43337;52.070;4.508;2022-12-16T06:47:35;23.45;;;8.57;;
49029;SDS011;43337;52.070;4.508;2022-12-16T06:50:21;19.65;;;8.27;;
49029;SDS011;43337;52.070;4.508;2022-12-16T06:53:05;15.85;;;6.75;;
49029;SDS011;43337;52.070;4.508;2022-12-16T06:55:49;20.85;;;7.00;;
49029;SDS011;43337;52.070;4.508;2022-12-16T06:58:33;18.05;;;7.32;;
49029;SDS011;43337;52.070;4.508;2022-12-16T07:01:16;25.10;;;10.00;;
49029;SDS011;43337;52.070;4.508;2022-12-16T07:04:00;20.92;;;8.27;;
49029;SDS011;43337;52.070;4.508;2022-12-16T07:06:44;24.13;;;9.50;;
49029;SDS011;43337;52.070;4.508;2022-12-16T07:09:28;17.48;;;8.05;;
49029;SDS011;43337;52.070;4.508;2022-12-16T07:12:12;23.80;;;10.52;;
49029;SDS011;43337;52.070;4.508;2022-12-16T07:14:56;16.70;;;6.25;;
49029;SDS011;43337;52.070;4.508;2022-12-16T07:17:40;10.35;;;5.00;;
49029;SDS011;43337;52.070;4.508;2022-12-16T07:20:24;12.82;;;5.00;;
49029;SDS011;43337;52.070;4.508;2022-12-16T07:23:08;12.70;;;5.03;;
49029;SDS011;43337;52.070;4.508;2022-12-16T07:25:52;27.70;;;9.35;;
49029;SDS011;43337;52.070;4.508;2022-12-16T07:28:36;14.95;;;6.55;;
49029;SDS011;43337;52.070;4.508;2022-12-16T07:31:20;17.23;;;5.15;;
49029;SDS011;43337;52.070;4.508;2022-12-16T07:34:04;23.30;;;8.00;;
49029;SDS011;43337;52.070;4.508;2022-12-16T07:36:48;11.70;;;4.40;;
49029;SDS011;43337;52.070;4.508;2022-12-16T07:39:32;37.47;;;8.88;;
49029;SDS011;43337;52.070;4.508;2022-12-16T07:42:16;15.25;;;4.75;;
49029;SDS011;43337;52.070;4.508;2022-12-16T07:45:00;14.13;;;6.18;;
49029;SDS011;43337;52.070;4.508;2022-12-16T07:47:47;11.23;;;5.60;;
49029;SDS011;43337;52.070;4.508;2022-12-16T07:50:32;14.18;;;5.47;;
49029;SDS011;43337;52.070;4.508;2022-12-16T07:53:16;13.60;;;4.60;;
49029;SDS011;43337;52.070;4.508;2022-12-16T07:56:00;11.80;;;4.30;;
49029;SDS011;43337;52.070;4.508;2022-12-16T07:58:44;16.35;;;5.65;;
49029;SDS011;43337;52.070;4.508;2022-12-16T08:01:28;19.55;;;4.57;;
49029;SDS011;43337;52.070;4.508;2022-12-16T08:04:12;14.23;;;4.93;;
49029;SDS011;43337;52.070;4.508;2022-12-16T08:06:56;13.95;;;5.50;;
49029;SDS011;43337;52.070;4.508;2022-12-16T08:09:40;15.45;;;5.68;;
49029;SDS011;43337;52.070;4.508;2022-12-16T08:12:24;13.73;;;4.70;;
49029;SDS011;43337;52.070;4.508;2022-12-16T08:15:08;8.07;;;3.65;;
49029;SDS011;43337;52.070;4.508;2022-12-16T08:17:52;11.80;;;4.10;;
49029;SDS011;43337;52.070;4.508;2022-12-16T08:20:36;8.93;;;3.60;;
49029;SDS011;43337;52.070;4.508;2022-12-16T08:23:20;7.38;;;3.05;;
49029;SDS011;43337;52.070;4.508;2022-12-16T08:26:04;14.93;;;3.67;;
49029;SDS011;43337;52.070;4.508;2022-12-16T08:28:48;12.50;;;4.30;;
49029;SDS011;43337;52.070;4.508;2022-12-16T08:31:33;15.80;;;5.07;;
49029;SDS011;43337;52.070;4.508;2022-12-16T08:34:17;14.32;;;4.93;;
49029;SDS011;43337;52.070;4.508;2022-12-16T08:37:01;9.50;;;4.32;;
49029;SDS011;43337;52.070;4.508;2022-12-16T08:39:46;11.85;;;4.30;;
49029;SDS011;43337;52.070;4.508;2022-12-16T08:42:29;9.27;;;4.05;;
49029;SDS011;43337;52.070;4.508;2022-12-16T08:45:14;8.52;;;3.55;;
49029;SDS011;43337;52.070;4.508;2022-12-16T08:47:58;14.50;;;4.17;;
49029;SDS011;43337;52.070;4.508;2022-12-16T08:50:42;11.70;;;4.78;;
49029;SDS011;43337;52.070;4.508;2022-12-16T08:53:26;18.48;;;5.05;;
49029;SDS011;43337;52.070;4.508;2022-12-16T08:56:10;13.07;;;5.13;;
49029;SDS011;43337;52.070;4.508;2022-12-16T08:58:54;18.50;;;6.90;;
49029;SDS011;43337;52.070;4.508;2022-12-16T09:01:37;14.30;;;5.68;;
49029;SDS011;43337;52.070;4.508;2022-12-16T09:04:21;17.30;;;5.75;;
49029;SDS011;43337;52.070;4.508;2022-12-16T09:07:06;14.23;;;5.07;;
49029;SDS011;43337;52.070;4.508;2022-12-16T09:09:49;9.48;;;4.68;;
49029;SDS011;43337;52.070;4.508;2022-12-16T09:12:35;15.70;;;4.70;;
49029;SDS011;43337;52.070;4.508;2022-12-16T09:15:19;17.27;;;6.85;;
49029;SDS011;43337;52.070;4.508;2022-12-16T09:18:03;20.80;;;5.03;;
49029;SDS011;43337;52.070;4.508;2022-12-16T09:20:47;15.90;;;7.03;;
49029;SDS011;43337;52.070;4.508;2022-12-16T09:23:31;16.33;;;4.85;;
49029;SDS011;43337;52.070;4.508;2022-12-16T09:26:15;12.80;;;4.90;;
49029;SDS011;43337;52.070;4.508;2022-12-16T09:28:58;18.20;;;5.50;;
49029;SDS011;43337;52.070;4.508;2022-12-16T09:31:42;11.80;;;4.65;;
49029;SDS011;43337;52.070;4.508;2022-12-16T09:34:26;15.63;;;5.57;;
49029;SDS011;43337;52.070;4.508;2022-12-16T09:37:10;19.48;;;5.47;;
49029;SDS011;43337;52.070;4.508;2022-12-16T09:40:02;16.23;;;4.88;;
49029;SDS011;43337;52.070;4.508;2022-12-16T09:45:38;16.15;;;5.15;;
49029;SDS011;43337;52.070;4.508;2022-12-16T09:48:45;12.80;;;4.70;;
49029;SDS011;43337;52.070;4.508;2022-12-16T09:51:43;14.57;;;5.55;;
49029;SDS011;43337;52.070;4.508;2022-12-16T09:54:30;17.13;;;5.20;;
49029;SDS011;43337;52.070;4.508;2022-12-16T09:57:17;18.38;;;4.90;;
49029;SDS011;43337;52.070;4.508;2022-12-16T10:00:07;22.85;;;5.28;;
49029;SDS011;43337;52.070;4.508;2022-12-16T10:03:00;22.35;;;5.13;;
49029;SDS011;43337;52.070;4.508;2022-12-16T10:06:23;13.05;;;5.20;;
49029;SDS011;43337;52.070;4.508;2022-12-16T10:09:57;18.48;;;6.07;;
49029;SDS011;43337;52.070;4.508;2022-12-16T10:15:28;15.40;;;4.95;;
49029;SDS011;43337;52.070;4.508;2022-12-16T10:21:39;13.00;;;4.90;;
49029;SDS011;43337;52.070;4.508;2022-12-16T10:24:32;15.55;;;5.35;;
49029;SDS011;43337;52.070;4.508;2022-12-16T10:27:25;11.30;;;4.05;;
49029;SDS011;43337;52.070;4.508;2022-12-16T10:30:23;15.43;;;5.05;;
49029;SDS011;43337;52.070;4.508;2022-12-16T10:33:08;11.50;;;4.40;;
49029;SDS011;43337;52.070;4.508;2022-12-16T10:35:54;10.48;;;4.05;;
49029;SDS011;43337;52.070;4.508;2022-12-16T10:38:43;11.23;;;4.07;;
49029;SDS011;43337;52.070;4.508;2022-12-16T10:41:32;11.35;;;3.92;;
49029;SDS011;43337;52.070;4.508;2022-12-16T10:44:26;8.70;;;3.30;;
49029;SDS011;43337;52.070;4.508;2022-12-16T10:47:16;11.23;;;3.42;;
49029;SDS011;43337;52.070;4.508;2022-12-16T10:50:00;10.95;;;3.65;;
49029;SDS011;43337;52.070;4.508;2022-12-16T10:52:48;8.93;;;3.88;;
49029;SDS011;43337;52.070;4.508;2022-12-16T10:55:41;10.73;;;3.70;;
49029;SDS011;43337;52.070;4.508;2022-12-16T10:58:41;9.75;;;3.10;;
49029;SDS011;43337;52.070;4.508;2022-12-16T11:01:29;7.70;;;2.92;;
49029;SDS011;43337;52.070;4.508;2022-12-16T11:04:32;15.25;;;3.53;;
49029;SDS011;43337;52.070;4.508;2022-12-16T11:07:35;11.27;;;3.40;;
49029;SDS011;43337;52.070;4.508;2022-12-16T11:10:41;8.38;;;3.20;;
49029;SDS011;43337;52.070;4.508;2022-12-16T11:13:27;15.20;;;3.83;;
49029;SDS011;43337;52.070;4.508;2022-12-16T11:16:12;5.47;;;3.00;;
49029;SDS011;43337;52.070;4.508;2022-12-16T11:19:02;9.73;;;3.55;;
49029;SDS011;43337;52.070;4.508;2022-12-16T11:21:47;8.82;;;3.17;;
49029;SDS011;43337;52.070;4.508;2022-12-16T11:24:31;6.83;;;2.70;;
49029;SDS011;43337;52.070;4.508;2022-12-16T11:27:21;6.40;;;2.47;;
49029;SDS011;43337;52.070;4.508;2022-12-16T11:32:57;7.03;;;2.20;;
49029;SDS011;43337;52.070;4.508;2022-12-16T11:35:51;8.45;;;2.35;;
49029;SDS011;43337;52.070;4.508;2022-12-16T11:38:41;5.13;;;2.40;;
49029;SDS011;43337;52.070;4.508;2022-12-16T11:41:34;10.98;;;2.83;;
49029;SDS011;43337;52.070;4.508;2022-12-16T11:44:21;9.07;;;2.85;;
49029;SDS011;43337;52.070;4.508;2022-12-16T11:50:26;5.78;;;2.42;;
49029;SDS011;43337;52.070;4.508;2022-12-16T11:56:11;10.52;;;2.40;;
49029;SDS011;43337;52.070;4.508;2022-12-16T11:59:00;11.13;;;2.90;;
49029;SDS011;43337;52.070;4.508;2022-12-16T12:01:56;6.97;;;2.60;;
49029;SDS011;43337;52.070;4.508;2022-12-16T12:04:43;9.20;;;2.58;;
49029;SDS011;43337;52.070;4.508;2022-12-16T12:19:20;11.48;;;2.60;;
49029;SDS011;43337;52.070;4.508;2022-12-16T12:22:34;6.05;;;2.15;;
49029;SDS011;43337;52.070;4.508;2022-12-16T12:25:21;8.52;;;2.33;;
49029;SDS011;43337;52.070;4.508;2022-12-16T12:38:08;10.00;;;2.58;;
49029;SDS011;43337;52.070;4.508;2022-12-16T12:41:00;8.80;;;2.38;;
49029;SDS011;43337;52.070;4.508;2022-12-16T12:46:56;6.63;;;2.50;;
49029;SDS011;43337;52.070;4.508;2022-12-16T12:55:40;6.95;;;2.40;;
49029;SDS011;43337;52.070;4.508;2022-12-16T12:58:32;8.23;;;2.28;;
49029;SDS011;43337;52.070;4.508;2022-12-16T13:01:24;5.25;;;2.10;;
49029;SDS011;43337;52.070;4.508;2022-12-16T13:04:13;6.00;;;2.47;;
49029;SDS011;43337;52.070;4.508;2022-12-16T13:07:01;5.55;;;1.90;;
49029;SDS011;43337;52.070;4.508;2022-12-16T13:09:45;6.07;;;2.20;;
49029;SDS011;43337;52.070;4.508;2022-12-16T13:15:57;4.68;;;1.98;;
49029;SDS011;43337;52.070;4.508;2022-12-16T13:18:43;5.72;;;2.15;;
49029;SDS011;43337;52.070;4.508;2022-12-16T13:27:22;5.68;;;2.40;;
49029;SDS011;43337;52.070;4.508;2022-12-16T13:32:59;5.72;;;2.95;;
49029;SDS011;43337;52.070;4.508;2022-12-16T13:35:51;6.38;;;2.35;;
49029;SDS011;43337;52.070;4.508;2022-12-16T13:38:49;8.27;;;3.17;;
49029;SDS011;43337;52.070;4.508;2022-12-16T13:53:23;4.63;;;2.30;;
49029;SDS011;43337;52.070;4.508;2022-12-16T13:56:12;5.30;;;2.10;;
49029;SDS011;43337;52.070;4.508;2022-12-16T13:59:20;9.00;;;2.83;;
49029;SDS011;43337;52.070;4.508;2022-12-16T14:05:26;5.28;;;2.15;;
49029;SDS011;43337;52.070;4.508;2022-12-16T14:08:14;6.00;;;2.25;;
49029;SDS011;43337;52.070;4.508;2022-12-16T14:11:01;7.30;;;2.67;;
49029;SDS011;43337;52.070;4.508;2022-12-16T14:13:49;5.25;;;2.30;;
49029;SDS011;43337;52.070;4.508;2022-12-16T14:16:43;8.43;;;3.00;;
49029;SDS011;43337;52.070;4.508;2022-12-16T14:19:37;7.45;;;2.80;;
49029;SDS011;43337;52.070;4.508;2022-12-16T14:25:43;8.40;;;2.88;;
49029;SDS011;43337;52.070;4.508;2022-12-16T14:28:28;7.80;;;2.80;;
49029;SDS011;43337;52.070;4.508;2022-12-16T14:31:25;8.20;;;3.05;;
49029;SDS011;43337;52.070;4.508;2022-12-16T14:34:19;6.85;;;3.40;;
49029;SDS011;43337;52.070;4.508;2022-12-16T14:37:18;7.57;;;3.45;;
49029;SDS011;43337;52.070;4.508;2022-12-16T14:40:03;8.93;;;3.50;;
49029;SDS011;43337;52.070;4.508;2022-12-16T14:43:00;10.88;;;3.25;;
49029;SDS011;43337;52.070;4.508;2022-12-16T14:45:47;9.27;;;3.05;;
49029;SDS011;43337;52.070;4.508;2022-12-16T14:51:33;8.43;;;3.40;;
49029;SDS011;43337;52.070;4.508;2022-12-16T14:57:15;8.30;;;3.00;;
49029;SDS011;43337;52.070;4.508;2022-12-16T15:03:04;7.47;;;3.22;;
49029;SDS011;43337;52.070;4.508;2022-12-16T15:05:55;7.35;;;2.97;;
49029;SDS011;43337;52.070;4.508;2022-12-16T15:08:45;5.47;;;3.10;;
49029;SDS011;43337;52.070;4.508;2022-12-16T15:11:33;7.32;;;3.33;;
49029;SDS011;43337;52.070;4.508;2022-12-16T15:14:20;7.88;;;3.17;;
49029;SDS011;43337;52.070;4.508;2022-12-16T15:17:25;10.23;;;3.67;;
49029;SDS011;43337;52.070;4.508;2022-12-16T15:20:20;8.05;;;3.75;;
49029;SDS011;43337;52.070;4.508;2022-12-16T15:23:16;24.73;;;9.93;;
49029;SDS011;43337;52.070;4.508;2022-12-16T15:26:15;31.13;;;14.02;;
49029;SDS011;43337;52.070;4.508;2022-12-16T15:29:03;20.75;;;9.10;;
49029;SDS011;43337;52.070;4.508;2022-12-16T15:31:48;19.33;;;7.13;;
49029;SDS011;43337;52.070;4.508;2022-12-16T15:34:36;14.88;;;6.80;;
49029;SDS011;43337;52.070;4.508;2022-12-16T15:37:29;15.93;;;7.28;;
49029;SDS011;43337;52.070;4.508;2022-12-16T15:40:20;14.15;;;6.85;;
49029;SDS011;43337;52.070;4.508;2022-12-16T15:43:26;14.75;;;5.60;;
49029;SDS011;43337;52.070;4.508;2022-12-16T15:46:16;13.18;;;5.85;;
49029;SDS011;43337;52.070;4.508;2022-12-16T15:49:17;12.57;;;5.93;;
49029;SDS011;43337;52.070;4.508;2022-12-16T15:52:20;14.70;;;5.88;;
49029;SDS011;43337;52.070;4.508;2022-12-16T15:58:34;18.48;;;8.73;;
49029;SDS011;43337;52.070;4.508;2022-12-16T16:01:20;21.90;;;8.52;;
49029;SDS011;43337;52.070;4.508;2022-12-16T16:04:22;18.48;;;8.00;;
49029;SDS011;43337;52.070;4.508;2022-12-16T16:07:22;21.27;;;9.43;;
49029;SDS011;43337;52.070;4.508;2022-12-16T16:12:57;23.33;;;8.50;;
49029;SDS011;43337;52.070;4.508;2022-12-16T16:15:41;19.88;;;8.75;;
49029;SDS011;43337;52.070;4.508;2022-12-16T16:18:25;15.52;;;7.43;;
49029;SDS011;43337;52.070;4.508;2022-12-16T16:21:09;16.60;;;6.60;;
49029;SDS011;43337;52.070;4.508;2022-12-16T16:23:53;14.80;;;7.10;;
49029;SDS011;43337;52.070;4.508;2022-12-16T16:26:37;17.30;;;7.20;;
49029;SDS011;43337;52.070;4.508;2022-12-16T16:29:21;32.55;;;12.90;;
49029;SDS011;43337;52.070;4.508;2022-12-16T16:32:06;20.58;;;9.75;;
49029;SDS011;43337;52.070;4.508;2022-12-16T16:34:51;26.25;;;10.15;;
49029;SDS011;43337;52.070;4.508;2022-12-16T16:37:35;23.23;;;9.60;;
49029;SDS011;43337;52.070;4.508;2022-12-16T16:43:16;47.08;;;15.23;;
49029;SDS011;43337;52.070;4.508;2022-12-16T16:46:01;48.90;;;17.73;;
49029;SDS011;43337;52.070;4.508;2022-12-16T16:48:48;59.22;;;21.17;;
49029;SDS011;43337;52.070;4.508;2022-12-16T16:51:31;53.03;;;19.23;;
49029;SDS011;43337;52.070;4.508;2022-12-16T16:54:15;48.75;;;17.77;;
49029;SDS011;43337;52.070;4.508;2022-12-16T16:56:59;51.70;;;17.52;;
49029;SDS011;43337;52.070;4.508;2022-12-16T16:59:44;41.85;;;15.50;;
49029;SDS011;43337;52.070;4.508;2022-12-16T17:02:28;61.20;;;22.60;;
49029;SDS011;43337;52.070;4.508;2022-12-16T17:05:12;57.03;;;20.27;;
49029;SDS011;43337;52.070;4.508;2022-12-16T17:07:56;52.63;;;20.98;;
49029;SDS011;43337;52.070;4.508;2022-12-16T17:10:41;41.85;;;16.35;;
49029;SDS011;43337;52.070;4.508;2022-12-16T17:13:26;37.00;;;14.20;;
49029;SDS011;43337;52.070;4.508;2022-12-16T17:16:11;32.47;;;13.77;;
49029;SDS011;43337;52.070;4.508;2022-12-16T17:18:56;35.00;;;15.02;;
49029;SDS011;43337;52.070;4.508;2022-12-16T17:21:40;26.98;;;11.60;;
49029;SDS011;43337;52.070;4.508;2022-12-16T17:24:24;26.50;;;11.35;;
49029;SDS011;43337;52.070;4.508;2022-12-16T17:27:16;27.25;;;12.18;;
49029;SDS011;43337;52.070;4.508;2022-12-16T17:30:25;46.85;;;21.58;;
49029;SDS011;43337;52.070;4.508;2022-12-16T17:33:08;38.90;;;15.60;;
49029;SDS011;43337;52.070;4.508;2022-12-16T17:35:52;41.40;;;17.90;;
49029;SDS011;43337;52.070;4.508;2022-12-16T17:38:40;33.35;;;15.25;;
49029;SDS011;43337;52.070;4.508;2022-12-16T17:41:29;33.70;;;14.63;;
49029;SDS011;43337;52.070;4.508;2022-12-16T17:44:15;37.05;;;14.38;;
49029;SDS011;43337;52.070;4.508;2022-12-16T17:46:59;33.97;;;14.43;;
49029;SDS011;43337;52.070;4.508;2022-12-16T17:49:43;29.48;;;12.88;;
49029;SDS011;43337;52.070;4.508;2022-12-16T17:52:27;30.98;;;13.18;;
49029;SDS011;43337;52.070;4.508;2022-12-16T17:55:11;27.70;;;13.40;;
49029;SDS011;43337;52.070;4.508;2022-12-16T17:57:55;27.07;;;13.40;;
49029;SDS011;43337;52.070;4.508;2022-12-16T18:00:39;36.50;;;14.60;;
49029;SDS011;43337;52.070;4.508;2022-12-16T18:03:23;31.08;;;13.75;;
49029;SDS011;43337;52.070;4.508;2022-12-16T18:06:07;28.85;;;14.40;;
49029;SDS011;43337;52.070;4.508;2022-12-16T18:08:51;35.25;;;15.13;;
49029;SDS011;43337;52.070;4.508;2022-12-16T18:11:35;34.05;;;15.10;;
49029;SDS011;43337;52.070;4.508;2022-12-16T18:14:19;33.75;;;15.52;;
49029;SDS011;43337;52.070;4.508;2022-12-16T18:17:03;36.30;;;15.15;;